| time (UTC) | temp F | wind direction | speed knots | gust knots | rain 1hr in | rain 24hr in | rain mn in | humidity % | barometer mb |
| 20260503212850 | 87 | 101 | 0.0 | 0.0 | 0.00 | 0.00 | 0.00 | 30 | 1011.4 |
| 20260503212348 | 87 | 254 | 1.7 | 1.7 | 0.00 | 0.00 | 0.00 | 29 | 1011.2 |
| 20260503211845 | 87 | 96 | 0.0 | 0.0 | 0.00 | 0.00 | 0.00 | 30 | 1011.4 |
| 20260503211342 | 87 | 90 | 0.9 | 0.9 | 0.00 | 0.00 | 0.00 | 34 | 1011.5 |
| 20260503210837 | 87 | 94 | 1.7 | 1.7 | 0.00 | 0.00 | 0.00 | 33 | 1011.6 |
| 20260503210335 | 86 | 106 | 0.0 | 0.9 | 0.00 | 0.00 | 0.00 | 32 | 1011.5 |
| 20260503205829 | 86 | 89 | 0.9 | 0.9 | 0.00 | 0.00 | 0.00 | 35 | 1011.7 |
| 20260503205326 | 86 | 100 | 1.7 | 2.6 | 0.00 | 0.00 | 0.00 | 33 | 1011.8 |
| 20260503204823 | 86 | 88 | 1.7 | 1.7 | 0.00 | 0.00 | 0.00 | 34 | 1011.8 |
| 20260503204320 | 86 | 81 | 1.7 | 1.7 | 0.00 | 0.00 | 0.00 | 35 | 1011.9 |
| 20260503203817 | 85 | 93 | 0.0 | 0.0 | 0.00 | 0.00 | 0.00 | 35 | 1011.8 |
| 20260503203315 | 85 | 95 | 1.7 | 2.6 | 0.00 | 0.00 | 0.00 | 35 | 1011.9 |
| 20260503202812 | 85 | 101 | 0.0 | 0.0 | 0.00 | 0.00 | 0.00 | 37 | 1012.1 |
| 20260503202310 | 85 | 96 | 1.7 | 1.7 | 0.00 | 0.00 | 0.00 | 38 | 1011.9 |
| 20260503201808 | 84 | 101 | 0.0 | 0.0 | 0.00 | 0.00 | 0.00 | 39 | 1012.2 |
| 20260503201304 | 84 | 108 | 1.7 | 1.7 | 0.00 | 0.00 | 0.00 | 38 | 1012.2 |
| 20260503200802 | 84 | 94 | 0.9 | 1.7 | 0.00 | 0.00 | 0.00 | 40 | 1012.1 |
| 20260503200257 | 83 | 84 | 2.6 | 3.5 | 0.00 | 0.00 | 0.00 | 39 | 1012.4 |
| 20260503195755 | 83 | 103 | 1.7 | 1.7 | 0.00 | 0.00 | 0.00 | 42 | 1012.5 |
| 20260503195251 | 83 | 92 | 2.6 | 2.6 | 0.00 | 0.00 | 0.00 | 42 | 1012.6 |
| 20260503194744 | 83 | 121 | 0.0 | 0.9 | 0.00 | 0.00 | 0.00 | 43 | 1012.6 |
| 20260503194239 | 82 | 92 | 0.9 | 0.9 | 0.00 | 0.00 | 0.00 | 43 | 1012.6 |
| 20260503193736 | 82 | 123 | 0.0 | 0.0 | 0.00 | 0.00 | 0.00 | 42 | 1012.7 |
| 20260503193232 | 82 | 97 | 1.7 | 1.7 | 0.00 | 0.00 | 0.00 | 44 | 1012.7 |
| 20260503192727 | 82 | 100 | 0.0 | 0.9 | 0.00 | 0.00 | 0.00 | 45 | 1012.9 |
| 20260503192223 | 81 | 105 | 0.9 | 0.9 | 0.00 | 0.00 | 0.00 | 46 | 1012.8 |
| 20260503191720 | 81 | 89 | 1.7 | 1.7 | 0.00 | 0.00 | 0.00 | 44 | 1012.9 |
| 20260503191217 | 80 | 97 | 0.9 | 0.9 | 0.00 | 0.00 | 0.00 | 47 | 1012.9 |
| 20260503190713 | 79 | 96 | 0.9 | 1.7 | 0.00 | 0.00 | 0.00 | 48 | 1012.9 |
| 20260503190210 | 78 | 115 | 0.9 | 1.7 | 0.00 | 0.00 | 0.00 | 49 | 1013.1 |
| 20260503185708 | 78 | 153 | 1.7 | 1.7 | 0.00 | 0.00 | 0.00 | 49 | 1013.2 |
| 20260503185203 | 79 | 83 | 2.6 | 3.5 | 0.00 | 0.00 | 0.00 | 51 | 1013.0 |
| 20260503184658 | 78 | 103 | 0.9 | 1.7 | 0.00 | 0.00 | 0.00 | 51 | 1013.2 |
| 20260503184154 | 77 | 88 | 1.7 | 2.6 | 0.00 | 0.00 | 0.00 | 52 | 1013.4 |
| 20260503183651 | 76 | 136 | 0.9 | 0.9 | 0.00 | 0.00 | 0.00 | 53 | 1013.4 |
| 20260503183148 | 76 | 90 | 1.7 | 2.6 | 0.00 | 0.00 | 0.00 | 54 | 1013.6 |
| 20260503182646 | 75 | 168 | 0.9 | 1.7 | 0.00 | 0.00 | 0.00 | 54 | 1013.5 |
| 20260503182145 | 74 | 95 | 2.6 | 2.6 | 0.00 | 0.00 | 0.00 | 56 | 1013.6 |
| 20260503181641 | 74 | 96 | 0.0 | 0.0 | 0.00 | 0.00 | 0.00 | 57 | 1013.5 |
| 20260503181138 | 73 | 208 | 2.6 | 2.6 | 0.00 | 0.00 | 0.00 | 57 | 1013.7 |
| 20260503180635 | 72 | 96 | 0.0 | 0.9 | 0.00 | 0.00 | 0.00 | 59 | 1013.6 |
| 20260503180132 | 72 | 155 | 0.9 | 1.7 | 0.00 | 0.00 | 0.00 | 60 | 1013.7 |
| 20260503175624 | 72 | 106 | 0.0 | 0.0 | 0.00 | 0.00 | 0.00 | 62 | 1013.8 |
| 20260503175120 | 71 | 131 | 0.9 | 1.7 | 0.00 | 0.00 | 0.00 | 62 | 1013.9 |
| 20260503174617 | 71 | 176 | 0.9 | 0.9 | 0.00 | 0.00 | 0.00 | 63 | 1014.0 |
| 20260503174115 | 71 | 103 | 0.0 | 0.9 | 0.00 | 0.00 | 0.00 | 63 | 1013.9 |
| 20260503173609 | 70 | 94 | 0.9 | 1.7 | 0.00 | 0.00 | 0.00 | 65 | 1014.1 |
| 20260503173106 | 70 | 81 | 0.9 | 0.9 | 0.00 | 0.00 | 0.00 | 66 | 1014.1 |
| 20260503172602 | 69 | 97 | 0.0 | 0.0 | 0.00 | 0.00 | 0.00 | 65 | 1014.0 |
| 20260503172100 | 69 | 91 | 1.7 | 1.7 | 0.00 | 0.00 | 0.00 | 66 | 1014.1 |
| 20260503171550 | 69 | 90 | 1.7 | 1.7 | 0.00 | 0.00 | 0.00 | 67 | 1014.3 |
| 20260503171048 | 68 | 96 | 0.0 | 0.9 | 0.00 | 0.00 | 0.00 | 68 | 1014.2 |
| 20260503170544 | 68 | 98 | 0.0 | 0.0 | 0.00 | 0.00 | 0.00 | 68 | 1014.2 |
| 20260503150937 | 58 | 94 | 0.0 | 0.0 | 0.00 | 0.00 | 0.00 | 92 | 1014.7 |
| 20260503150433 | 57 | 94 | 0.0 | 0.0 | 0.00 | 0.00 | 0.00 | 93 | 1014.7 |
| 20260503131320 | 52 | 127 | 0.0 | 0.0 | 0.00 | 0.00 | 0.00 | 98 | 1014.3 |
| 20260503130818 | 52 | 100 | 0.0 | 0.0 | 0.00 | 0.00 | 0.00 | 98 | 1014.5 |
| 20260503130315 | 52 | 109 | 0.0 | 0.0 | 0.00 | 0.00 | 0.00 | 98 | 1014.2 |
| 20260503110703 | 53 | 95 | 0.0 | 0.0 | 0.00 | 0.00 | 0.00 | 97 | 1014.6 |
| 20260503110200 | 54 | 92 | 0.0 | 0.0 | 0.00 | 0.00 | 0.00 | 97 | 1014.7 |
| 20260503100127 | 55 | 99 | 0.0 | 0.0 | 0.00 | 0.00 | 0.00 | 94 | 1014.7 |
| 20260503081516 | 58 | 101 | 0.0 | 0.0 | 0.00 | 0.00 | 0.00 | 88 | 1014.8 |
| 20260503081013 | 59 | 102 | 0.9 | 0.9 | 0.00 | 0.00 | 0.00 | 87 | 1014.9 |
| 20260503080509 | 59 | 102 | 0.0 | 0.0 | 0.00 | 0.00 | 0.00 | 86 | 1014.9 |
| 20260503072443 | 60 | 103 | 0.0 | 0.0 | 0.00 | 0.00 | 0.00 | 84 | 1014.9 |
| 20260503071940 | 61 | 102 | 0.0 | 0.9 | 0.00 | 0.00 | 0.00 | 83 | 1014.9 |
| 20260503071437 | 61 | 105 | 0.0 | 0.0 | 0.00 | 0.00 | 0.00 | 83 | 1014.8 |
| 20260503070933 | 61 | 105 | 0.0 | 0.0 | 0.00 | 0.00 | 0.00 | 82 | 1014.8 |
| 20260503070430 | 61 | 106 | 0.0 | 0.0 | 0.00 | 0.00 | 0.00 | 82 | 1015.0 |
| 20260503054844 | 63 | 99 | 0.9 | 0.9 | 0.00 | 0.01 | 0.01 | 78 | 1014.7 |
| 20260503054339 | 63 | 97 | 0.9 | 0.9 | 0.00 | 0.01 | 0.01 | 78 | 1014.7 |
| 20260503053837 | 63 | 99 | 0.9 | 0.9 | 0.00 | 0.01 | 0.01 | 78 | 1014.8 |
| 20260503053336 | 63 | 98 | 0.0 | 0.9 | 0.00 | 0.01 | 0.01 | 78 | 1014.9 |
| 20260503052831 | 63 | 99 | 0.0 | 0.0 | 0.00 | 0.01 | 0.01 | 78 | 1015.0 |
| 20260503052329 | 63 | 100 | 0.9 | 0.9 | 0.00 | 0.01 | 0.01 | 77 | 1015.1 |
| 20260503051825 | 63 | 100 | 0.0 | 0.0 | 0.00 | 0.01 | 0.01 | 78 | 1015.2 |
| 20260503051321 | 64 | 100 | 0.0 | 0.0 | 0.00 | 0.01 | 0.01 | 77 | 1015.2 |
| 20260503050818 | 64 | 100 | 0.0 | 0.9 | 0.00 | 0.01 | 0.01 | 78 | 1015.1 |
| 20260503050314 | 64 | 100 | 0.9 | 0.9 | 0.00 | 0.01 | 0.01 | 77 | 1015.2 |
| 20260503045812 | 64 | 102 | 0.0 | 0.9 | 0.00 | 0.01 | 0.01 | 76 | 1015.2 |
| 20260503045310 | 64 | 104 | 0.0 | 0.0 | 0.00 | 0.01 | 0.01 | 75 | 1015.2 |
| 20260503044806 | 64 | 104 | 0.0 | 0.0 | 0.00 | 0.01 | 0.01 | 75 | 1015.2 |
| 20260503044303 | 64 | 105 | 0.0 | 0.9 | 0.00 | 0.01 | 0.01 | 75 | 1015.1 |
| 20260503043800 | 64 | 98 | 0.0 | 0.0 | 0.00 | 0.01 | 0.01 | 75 | 1015.1 |
| 20260503043257 | 64 | 98 | 0.0 | 0.0 | 0.00 | 0.01 | 0.01 | 75 | 1015.0 |
| 20260503042753 | 65 | 98 | 0.0 | 0.0 | 0.00 | 0.01 | 0.01 | 74 | 1015.2 |
| 20260503042250 | 65 | 98 | 0.0 | 0.0 | 0.00 | 0.01 | 0.01 | 74 | 1015.4 |
| 20260503041745 | 65 | 98 | 0.0 | 0.0 | 0.00 | 0.01 | 0.01 | 73 | 1015.1 |
| 20260503041244 | 65 | 98 | 0.0 | 0.0 | 0.00 | 0.01 | 0.01 | 73 | 1015.2 |
| 20260503040741 | 65 | 98 | 0.0 | 0.0 | 0.00 | 0.01 | 0.01 | 72 | 1015.1 |
| 20260503040239 | 66 | 99 | 0.0 | 0.0 | 0.00 | 0.01 | 0.01 | 72 | 1015.1 |
| 20260503035735 | 66 | 97 | 0.0 | 0.0 | 0.00 | 0.01 | 0.01 | 72 | 1015.2 |
| 20260503035233 | 66 | 104 | 0.9 | 0.9 | 0.00 | 0.01 | 0.01 | 71 | 1015.1 |
| 20260503034730 | 66 | 106 | 0.0 | 0.0 | 0.00 | 0.01 | 0.01 | 71 | 1015.1 |
| 20260503034226 | 66 | 107 | 0.0 | 0.0 | 0.00 | 0.01 | 0.01 | 71 | 1015.0 |
| 20260503033724 | 66 | 107 | 0.0 | 0.0 | 0.00 | 0.01 | 0.01 | 70 | 1014.9 |
| 20260503033221 | 66 | 114 | 0.9 | 0.9 | 0.00 | 0.01 | 0.01 | 70 | 1014.9 |
| 20260503032720 | 66 | 108 | 0.0 | 0.9 | 0.00 | 0.01 | 0.01 | 70 | 1014.8 |
| 20260503032218 | 66 | 117 | 0.9 | 0.9 | 0.00 | 0.01 | 0.01 | 70 | 1014.8 |
| 20260503031714 | 66 | 131 | 2.6 | 2.6 | 0.00 | 0.01 | 0.01 | 69 | 1014.7 |
| 20260503031213 | 67 | 124 | 1.7 | 1.7 | 0.00 | 0.01 | 0.01 | 69 | 1014.7 |
| 20260503030709 | 67 | 124 | 2.6 | 2.6 | 0.00 | 0.01 | 0.01 | 69 | 1014.7 |
| 20260503030205 | 68 | 126 | 1.7 | 1.7 | 0.00 | 0.01 | 0.01 | 68 | 1014.6 |
| 20260503025702 | 68 | 125 | 1.7 | 1.7 | 0.00 | 0.01 | 0.01 | 67 | 1014.4 |
| 20260503025200 | 69 | 116 | 0.9 | 1.7 | 0.00 | 0.01 | 0.01 | 66 | 1014.6 |
| 20260503024656 | 70 | 123 | 0.9 | 1.7 | 0.00 | 0.01 | 0.01 | 64 | 1014.3 |
| 20260503024154 | 72 | 131 | 2.6 | 2.6 | 0.00 | 0.01 | 0.01 | 61 | 1014.3 |
| 20260503023650 | 72 | 114 | 3.5 | 5.2 | 0.00 | 0.01 | 0.01 | 60 | 1014.0 |
| 20260503023147 | 72 | 120 | 0.9 | 0.9 | 0.00 | 0.01 | 0.01 | 59 | 1013.9 |
| 20260503022644 | 72 | 130 | 1.7 | 1.7 | 0.00 | 0.01 | 0.01 | 59 | 1014.2 |
| 20260503022143 | 72 | 132 | 1.7 | 1.7 | 0.00 | 0.01 | 0.01 | 59 | 1013.9 |
| 20260503021640 | 72 | 115 | 0.9 | 1.7 | 0.00 | 0.01 | 0.01 | 59 | 1013.8 |
| 20260503021137 | 72 | 114 | 0.9 | 0.9 | 0.00 | 0.01 | 0.01 | 60 | 1013.7 |
| 20260503020634 | 73 | 226 | 1.7 | 1.7 | 0.00 | 0.01 | 0.01 | 59 | 1013.7 |
| 20260503020131 | 73 | 119 | 0.9 | 0.9 | 0.00 | 0.01 | 0.01 | 59 | 1013.5 |
| 20260503015628 | 73 | 123 | 1.7 | 1.7 | 0.00 | 0.01 | 0.01 | 59 | 1013.5 |
| 20260503015125 | 74 | 122 | 1.7 | 1.7 | 0.00 | 0.01 | 0.01 | 58 | 1013.5 |
| 20260503014621 | 75 | 114 | 0.9 | 0.9 | 0.00 | 0.01 | 0.01 | 57 | 1013.3 |
| 20260503014119 | 75 | 101 | 0.9 | 0.9 | 0.00 | 0.01 | 0.01 | 56 | 1013.3 |
| 20260503013616 | 75 | 101 | 0.0 | 0.0 | 0.00 | 0.01 | 0.01 | 57 | 1013.2 |
| 20260503013114 | 75 | 106 | 0.0 | 0.0 | 0.00 | 0.01 | 0.01 | 59 | 1013.3 |
| 20260503012611 | 75 | 106 | 0.0 | 0.0 | 0.00 | 0.01 | 0.01 | 58 | 1013.3 |
| 20260503012107 | 75 | 107 | 0.0 | 0.0 | 0.00 | 0.01 | 0.01 | 57 | 1013.3 |
| 20260503011604 | 75 | 107 | 0.0 | 0.0 | 0.00 | 0.01 | 0.01 | 57 | 1013.3 |
| 20260503011101 | 74 | 99 | 0.0 | 0.0 | 0.00 | 0.01 | 0.01 | 58 | 1013.2 |
| 20260503010557 | 74 | 96 | 0.0 | 0.0 | 0.00 | 0.01 | 0.01 | 57 | 1013.2 |
| 20260503010055 | 74 | 99 | 0.0 | 0.0 | 0.00 | 0.01 | 0.01 | 57 | 1013.3 |
| 20260503005551 | 74 | 96 | 0.0 | 0.0 | 0.00 | 0.01 | 0.01 | 57 | 1013.3 |
| 20260503005049 | 74 | 100 | 0.0 | 0.9 | 0.00 | 0.01 | 0.01 | 57 | 1013.3 |
| 20260503004545 | 74 | 98 | 0.0 | 0.0 | 0.00 | 0.01 | 0.01 | 59 | 1013.6 |
| 20260503004043 | 73 | 100 | 0.0 | 0.0 | 0.00 | 0.01 | 0.01 | 58 | 1013.3 |
| 20260503003539 | 73 | 100 | 0.0 | 0.0 | 0.00 | 0.01 | 0.01 | 58 | 1013.4 |
| 20260503003037 | 73 | 90 | 0.0 | 0.0 | 0.00 | 0.01 | 0.01 | 58 | 1013.3 |
| 20260503002534 | 73 | 99 | 0.0 | 0.0 | 0.00 | 0.01 | 0.01 | 58 | 1013.4 |
| 20260503002031 | 73 | 108 | 0.0 | 0.0 | 0.00 | 0.01 | 0.01 | 58 | 1013.5 |
| 20260503001527 | 73 | 97 | 0.0 | 0.0 | 0.00 | 0.01 | 0.01 | 59 | 1013.5 |
| 20260503001025 | 73 | 94 | 0.0 | 0.0 | 0.00 | 0.01 | 0.01 | 59 | 1013.5 |
| 20260503000522 | 73 | 98 | 1.7 | 1.7 | 0.00 | 0.01 | 0.01 | 60 | 1013.4 |
| 20260503000019 | 72 | 95 | 0.9 | 0.9 | 0.00 | 0.01 | 0.01 | 59 | 1013.4 |
| 20260502235515 | 72 | 102 | 0.0 | 0.0 | 0.00 | 0.01 | 0.01 | 59 | 1013.6 |
| 20260502235013 | 72 | 99 | 0.0 | 0.0 | 0.00 | 0.01 | 0.01 | 59 | 1013.6 |
| 20260502234509 | 72 | 96 | 0.0 | 0.9 | 0.00 | 0.01 | 0.01 | 59 | 1013.7 |
| 20260502234007 | 72 | 85 | 0.9 | 0.9 | 0.00 | 0.01 | 0.01 | 60 | 1013.7 |
| 20260502233506 | 72 | 90 | 0.9 | 1.7 | 0.00 | 0.01 | 0.01 | 60 | 1013.8 |
| 20260502233004 | 72 | 85 | 1.7 | 1.7 | 0.00 | 0.01 | 0.01 | 60 | 1013.8 |
| 20260502232500 | 72 | 96 | 1.7 | 1.7 | 0.00 | 0.01 | 0.01 | 60 | 1013.8 |
| 20260502231957 | 71 | 94 | 0.9 | 0.9 | 0.00 | 0.01 | 0.01 | 61 | 1013.9 |
| 20260502231454 | 71 | 100 | 0.9 | 0.9 | 0.00 | 0.01 | 0.01 | 61 | 1014.0 |
| 20260502230952 | 71 | 92 | 0.0 | 0.9 | 0.00 | 0.01 | 0.01 | 61 | 1014.0 |
| 20260502230450 | 71 | 89 | 0.9 | 0.9 | 0.00 | 0.01 | 0.01 | 60 | 1014.1 |
| 20260502225948 | 70 | 107 | 0.9 | 0.9 | 0.00 | 0.01 | 0.01 | 61 | 1014.1 |
| 20260502225444 | 71 | 44 | 1.7 | 2.6 | 0.00 | 0.01 | 0.01 | 60 | 1014.4 |
| 20260502224941 | 71 | 97 | 0.0 | 0.0 | 0.00 | 0.01 | 0.01 | 60 | 1014.3 |
| 20260502224437 | 70 | 93 | 0.9 | 0.9 | 0.00 | 0.01 | 0.01 | 60 | 1014.4 |
| 20260502223934 | 69 | 106 | 0.0 | 0.0 | 0.00 | 0.01 | 0.01 | 62 | 1014.7 |
| 20260502223432 | 69 | 96 | 0.0 | 0.9 | 0.00 | 0.01 | 0.01 | 62 | 1014.6 |
| 20260502222930 | 69 | 84 | 1.7 | 1.7 | 0.00 | 0.01 | 0.01 | 63 | 1014.7 |
| 20260502222427 | 69 | 85 | 0.9 | 0.9 | 0.00 | 0.01 | 0.01 | 62 | 1015.0 |
| 20260502221922 | 68 | 103 | 1.7 | 1.7 | 0.00 | 0.01 | 0.01 | 62 | 1014.8 |
| 20260502221419 | 69 | 93 | 0.0 | 0.0 | 0.00 | 0.01 | 0.01 | 63 | 1015.0 |
| 20260502220917 | 69 | 40 | 1.7 | 5.2 | 0.00 | 0.01 | 0.01 | 63 | 1015.0 |
| 20260502220412 | 68 | 115 | 0.0 | 0.9 | 0.00 | 0.01 | 0.01 | 62 | 1015.2 |
| 20260502215909 | 68 | 88 | 0.9 | 0.9 | 0.00 | 0.01 | 0.01 | 63 | 1015.4 |
| 20260502215407 | 68 | 98 | 0.0 | 0.9 | 0.00 | 0.01 | 0.01 | 65 | 1015.4 |
| 20260502214903 | 68 | 97 | 1.7 | 2.6 | 0.00 | 0.01 | 0.01 | 64 | 1015.6 |
| 20260502214400 | 67 | 95 | 0.0 | 0.0 | 0.00 | 0.01 | 0.01 | 65 | 1015.6 |
| 20260502213857 | 67 | 111 | 1.7 | 1.7 | 0.00 | 0.01 | 0.01 | 65 | 1015.7 |
| 20260502213354 | 67 | 119 | 1.7 | 1.7 | 0.00 | 0.01 | 0.01 | 65 | 1015.7 |